createdAt,value
2019-03-03T00:00:49.332Z,24.87
2019-03-03T00:03:27.067Z,25.70
2019-03-03T00:06:13.995Z,25.40
2019-03-03T00:08:43.059Z,26.43
2019-03-03T00:11:25.109Z,28.07
2019-03-03T00:14:01.425Z,25.33
2019-03-03T00:16:32.976Z,26.03
2019-03-03T00:19:29.380Z,24.93
2019-03-03T00:21:59.578Z,26.93
2019-03-03T00:24:39.932Z,27.53
2019-03-03T00:27:15.934Z,27.43
2019-03-03T00:29:53.911Z,26.30
2019-03-03T00:32:26.888Z,25.13
2019-03-03T00:35:00.342Z,24.70
2019-03-03T00:37:56.257Z,26.67
2019-03-03T00:40:45.394Z,25.37
2019-03-03T00:43:21.526Z,24.47
2019-03-03T00:46:27.980Z,26.60
2019-03-03T00:49:41.444Z,27.50
2019-03-03T00:52:37.528Z,26.13
2019-03-03T00:55:22.952Z,25.77
2019-03-03T00:58:13.927Z,26.70
2019-03-03T01:01:03.589Z,23.50
2019-03-03T01:03:59.772Z,27.53
2019-03-03T01:06:54.254Z,25.43
2019-03-03T01:09:46.571Z,27.70
2019-03-03T01:12:38.630Z,29.73
2019-03-03T01:15:31.004Z,26.53
2019-03-03T01:18:29.123Z,25.53
2019-03-03T01:21:40.799Z,25.87
2019-03-03T01:24:28.690Z,26.80
2019-03-03T01:27:09.532Z,25.57
2019-03-03T01:29:49.296Z,26.77
2019-03-03T01:32:18.367Z,28.27
2019-03-03T01:35:11.829Z,28.70
2019-03-03T01:37:44.163Z,26.63
2019-03-03T01:40:41.050Z,26.60
2019-03-03T01:43:23.892Z,26.83
2019-03-03T01:45:57.322Z,26.57
2019-03-03T01:48:38.700Z,26.37
2019-03-03T01:51:21.134Z,24.93
2019-03-03T01:53:51.990Z,26.07
2019-03-03T01:56:30.897Z,25.40
2019-03-03T01:59:00.483Z,24.77
2019-03-03T02:01:47.190Z,23.83
2019-03-03T02:04:20.515Z,22.90
2019-03-03T02:07:01.052Z,21.47
2019-03-03T02:09:37.800Z,21.80
2019-03-03T02:12:11.328Z,21.20
2019-03-03T02:14:57.606Z,21.97
2019-03-03T02:17:40.645Z,21.53
2019-03-03T02:20:12.379Z,21.37
2019-03-03T02:22:59.644Z,20.43
2019-03-03T02:25:34.170Z,20.63
2019-03-03T02:28:07.228Z,17.60
2019-03-03T02:30:44.254Z,20.80
2019-03-03T02:33:13.415Z,20.33
2019-03-03T02:35:49.260Z,19.63
2019-03-03T02:38:27.694Z,19.70
2019-03-03T02:41:04.177Z,20.63
2019-03-03T02:43:43.984Z,18.13
2019-03-03T02:46:16.504Z,18.87
2019-03-03T02:49:00.094Z,16.97
2019-03-03T02:51:32.085Z,17.20
2019-03-03T02:54:08.810Z,16.60
2019-03-03T02:56:41.484Z,15.63
2019-03-03T02:59:21.880Z,16.23
2019-03-03T03:01:59.907Z,14.90
2019-03-03T03:04:37.054Z,14.77
2019-03-03T03:07:29.832Z,14.57
2019-03-03T03:10:22.352Z,15.00
2019-03-03T03:13:02.586Z,13.50
2019-03-03T03:16:00.607Z,14.20
2019-03-03T03:18:54.159Z,13.90
2019-03-03T03:21:39.401Z,14.30
2019-03-03T03:24:31.565Z,14.97
2019-03-03T03:27:23.438Z,13.80
2019-03-03T03:30:40.373Z,13.77
2019-03-03T03:33:37.807Z,14.20
2019-03-03T03:36:40.494Z,12.67
2019-03-03T03:39:48.625Z,12.87
2019-03-03T03:42:26.024Z,14.00
2019-03-03T03:45:29.713Z,12.70
2019-03-03T03:48:27.954Z,12.40
2019-03-03T03:51:31.613Z,12.50
2019-03-03T03:54:21.218Z,12.47
2019-03-03T03:57:08.696Z,12.60
2019-03-03T04:00:02.267Z,11.53
2019-03-03T04:03:08.030Z,11.50
2019-03-03T04:06:03.190Z,12.10
2019-03-03T04:09:10.233Z,10.90
2019-03-03T04:11:59.833Z,11.10
2019-03-03T04:14:41.053Z,11.23
2019-03-03T04:17:42.350Z,11.90
2019-03-03T04:20:36.388Z,10.30
2019-03-03T04:23:28.187Z,11.20
2019-03-03T04:26:12.731Z,10.40
2019-03-03T04:29:01.300Z,11.13
2019-03-03T04:31:55.447Z,10.13
2019-03-03T04:34:52.925Z,10.57
2019-03-03T04:37:40.995Z,11.47
2019-03-03T04:40:17.576Z,10.27
2019-03-03T04:43:07.604Z,10.10
2019-03-03T04:45:44.133Z,9.93
2019-03-03T04:48:39.898Z,10.40
2019-03-03T04:51:34.255Z,10.17
2019-03-03T04:54:41.667Z,9.57
2019-03-03T04:57:39.415Z,10.50
2019-03-03T05:00:45.375Z,10.23
2019-03-03T05:03:28.912Z,9.80
2019-03-03T05:06:06.256Z,10.17
2019-03-03T05:08:49.555Z,10.57
2019-03-03T05:12:09.520Z,9.10
2019-03-03T05:14:50.414Z,9.77
2019-03-03T05:17:30.716Z,9.73
2019-03-03T05:20:01.096Z,10.67
2019-03-03T05:22:37.971Z,10.20
2019-03-03T05:25:07.524Z,9.73
2019-03-03T05:27:43.606Z,9.90
2019-03-03T05:30:13.525Z,10.30
2019-03-03T05:32:53.302Z,9.70
2019-03-03T05:35:26.746Z,9.83
2019-03-03T05:38:01.236Z,9.93
2019-03-03T05:40:35.361Z,10.80
2019-03-03T05:43:14.798Z,10.70
2019-03-03T05:45:56.696Z,10.73
2019-03-03T05:48:29.111Z,10.07
2019-03-03T05:51:01.266Z,9.67
2019-03-03T05:53:34.642Z,10.77
2019-03-03T05:56:09.737Z,9.40
2019-03-03T05:58:41.179Z,10.87
2019-03-03T06:01:17.575Z,10.10
2019-03-03T06:03:52.440Z,10.57
2019-03-03T06:06:21.715Z,10.20
2019-03-03T06:08:56.923Z,11.00
2019-03-03T06:11:30.331Z,10.77
2019-03-03T06:14:02.730Z,10.10
2019-03-03T06:16:40.078Z,10.47
2019-03-03T06:19:13.051Z,9.93
2019-03-03T06:21:42.470Z,11.07
2019-03-03T06:24:12.760Z,10.70
2019-03-03T06:26:44.701Z,10.27
2019-03-03T06:29:17.645Z,9.93
2019-03-03T06:31:49.334Z,10.63
2019-03-03T06:34:22.039Z,10.50
2019-03-03T06:36:59.204Z,10.53
2019-03-03T06:39:29.698Z,10.63
2019-03-03T06:41:58.933Z,11.33
2019-03-03T06:44:33.002Z,11.17
2019-03-03T06:47:02.230Z,10.70
2019-03-03T06:49:36.712Z,11.10
2019-03-03T06:52:05.719Z,10.87
2019-03-03T06:54:36.060Z,10.63
2019-03-03T06:57:09.386Z,10.23
2019-03-03T06:59:50.418Z,10.70
2019-03-03T07:02:19.427Z,9.50
2019-03-03T07:04:51.422Z,10.03
2019-03-03T07:07:24.468Z,10.50
2019-03-03T07:10:06.855Z,9.23
2019-03-03T07:12:48.456Z,9.67
2019-03-03T07:15:20.917Z,10.67
2019-03-03T07:17:51.192Z,13.23
2019-03-03T07:20:27.824Z,11.10
2019-03-03T07:23:06.823Z,10.73
2019-03-03T07:25:39.119Z,10.17
2019-03-03T07:28:17.242Z,10.13
2019-03-03T07:30:47.165Z,9.53
2019-03-03T07:33:31.973Z,10.07
2019-03-03T07:36:02.422Z,9.07
2019-03-03T07:38:38.911Z,10.03
2019-03-03T07:41:17.980Z,10.70
2019-03-03T07:43:47.379Z,10.23
2019-03-03T07:46:23.417Z,9.53
2019-03-03T07:48:59.888Z,9.90
2019-03-03T07:51:38.991Z,11.40
2019-03-03T07:54:10.951Z,10.97
2019-03-03T07:56:42.094Z,10.17
2019-03-03T07:59:18.057Z,10.27
2019-03-03T08:01:49.316Z,11.33
2019-03-03T08:04:32.047Z,11.07
2019-03-03T08:07:04.903Z,11.23
2019-03-03T08:09:34.016Z,11.57
2019-03-03T08:12:11.372Z,10.83
2019-03-03T08:14:40.600Z,12.17
2019-03-03T08:17:10.699Z,11.57
2019-03-03T08:19:42.223Z,11.23
2019-03-03T08:22:14.251Z,10.93
2019-03-03T08:24:45.170Z,12.73
2019-03-03T08:27:18.021Z,10.80
2019-03-03T08:29:55.595Z,10.77
2019-03-03T08:32:31.949Z,11.93
2019-03-03T08:35:03.387Z,11.30
2019-03-03T08:37:32.521Z,10.90
2019-03-03T08:40:11.864Z,9.93
2019-03-03T08:43:01.315Z,11.23
2019-03-03T08:45:43.064Z,11.47
2019-03-03T08:48:20.916Z,11.20
2019-03-03T08:50:58.312Z,10.90
2019-03-03T08:53:55.729Z,11.13
2019-03-03T08:57:06.299Z,10.53
2019-03-03T08:59:49.302Z,10.50
2019-03-03T09:02:30.599Z,10.67
2019-03-03T09:05:12.660Z,10.73
2019-03-03T09:08:19.820Z,9.50
2019-03-03T09:11:14.272Z,9.53
2019-03-03T09:14:05.251Z,9.07
2019-03-03T09:16:58.279Z,9.27
2019-03-03T09:20:02.936Z,8.70
2019-03-03T09:22:55.408Z,8.87
2019-03-03T09:25:57.095Z,9.67
2019-03-03T09:28:58.430Z,9.40
2019-03-03T09:32:08.367Z,8.53
2019-03-03T09:35:13.646Z,8.60
2019-03-03T09:38:14.166Z,9.80
2019-03-03T09:41:30.705Z,9.17
2019-03-03T09:44:19.235Z,9.40
2019-03-03T09:47:21.901Z,8.67
2019-03-03T09:50:14.326Z,9.00
2019-03-03T09:53:00.527Z,8.47
2019-03-03T09:55:58.370Z,8.63
2019-03-03T09:58:42.815Z,6.53
2019-03-03T10:01:40.288Z,5.47
2019-03-03T10:04:40.848Z,4.43
2019-03-03T10:07:37.820Z,4.70
2019-03-03T10:10:19.739Z,4.43
2019-03-03T10:13:11.845Z,4.67
2019-03-03T10:15:58.919Z,4.47
2019-03-03T10:18:39.944Z,5.00
2019-03-03T10:21:22.946Z,4.50
2019-03-03T10:24:34.734Z,3.90
2019-03-03T10:27:33.414Z,4.63
2019-03-03T10:30:25.460Z,4.83
2019-03-03T10:33:20.700Z,6.03
2019-03-03T10:36:29.421Z,5.57
2019-03-03T10:39:30.870Z,5.83
2019-03-03T10:42:24.022Z,5.70
2019-03-03T10:45:23.272Z,5.07
2019-03-03T10:48:11.495Z,4.60
2019-03-03T10:51:05.378Z,4.30
2019-03-03T10:53:55.528Z,4.37
2019-03-03T10:56:43.276Z,4.37
2019-03-03T10:59:43.149Z,3.90
2019-03-03T11:02:40.607Z,4.87
2019-03-03T11:05:56.671Z,5.67
2019-03-03T11:08:51.780Z,4.57
2019-03-03T11:11:40.360Z,5.20
2019-03-03T11:14:58.955Z,5.10
2019-03-03T11:17:50.206Z,6.50
2019-03-03T11:23:34.033Z,4.80
2019-03-03T11:26:37.721Z,5.87
2019-03-03T11:29:36.313Z,5.53
2019-03-03T11:32:36.686Z,5.00
2019-03-03T11:35:42.144Z,6.13
2019-03-03T11:38:43.517Z,6.50
2019-03-03T11:42:01.775Z,6.53
2019-03-03T11:45:08.815Z,5.77
2019-03-03T11:48:13.623Z,5.90
2019-03-03T11:51:27.466Z,5.60
2019-03-03T11:54:11.650Z,6.93
2019-03-03T11:57:41.754Z,6.97
2019-03-03T12:00:42.678Z,6.37
2019-03-03T12:03:43.630Z,6.70
2019-03-03T12:06:45.036Z,6.57
2019-03-03T12:09:35.083Z,6.63
2019-03-03T12:12:34.164Z,6.50
2019-03-03T12:15:31.007Z,7.57
2019-03-03T12:18:33.754Z,7.27
2019-03-03T12:21:15.043Z,7.30
2019-03-03T12:24:10.970Z,7.73
2019-03-03T12:27:07.780Z,7.73
2019-03-03T12:30:12.160Z,7.83
2019-03-03T12:33:05.347Z,8.70
2019-03-03T12:36:05.896Z,8.47
2019-03-03T12:38:54.788Z,8.80
2019-03-03T12:41:52.325Z,8.30
2019-03-03T12:44:38.192Z,7.80
2019-03-03T12:47:42.092Z,8.40
2019-03-03T12:50:51.835Z,7.90
2019-03-03T12:53:51.831Z,8.33
2019-03-03T12:56:54.743Z,6.27
2019-03-03T12:59:53.151Z,6.37
2019-03-03T13:06:07.278Z,5.47
2019-03-03T13:09:07.710Z,5.77
2019-03-03T13:12:10.811Z,5.07
2019-03-03T13:15:01.294Z,4.57
2019-03-03T13:18:05.365Z,3.97
2019-03-03T13:20:48.879Z,3.83
2019-03-03T13:23:34.365Z,3.87
2019-03-03T13:26:27.808Z,3.70
2019-03-03T13:29:18.839Z,3.67
2019-03-03T13:32:07.122Z,3.40
2019-03-03T13:35:06.068Z,3.30
2019-03-03T13:38:04.863Z,3.60
2019-03-03T13:40:45.247Z,3.63
2019-03-03T13:43:15.266Z,3.70
2019-03-03T13:45:48.345Z,2.97
2019-03-03T13:48:20.395Z,3.57
2019-03-03T13:50:52.409Z,2.93
2019-03-03T13:53:25.998Z,2.90
2019-03-03T13:56:01.180Z,3.50
2019-03-03T13:58:42.723Z,3.30
2019-03-03T14:01:20.580Z,4.37
2019-03-03T14:03:58.967Z,4.20
2019-03-03T14:06:29.363Z,3.17
2019-03-03T14:08:58.552Z,3.00
2019-03-03T14:11:35.405Z,3.70
2019-03-03T14:14:10.955Z,3.20
2019-03-03T14:16:46.851Z,3.40
2019-03-03T14:19:21.999Z,3.67
2019-03-03T14:22:02.736Z,3.40
2019-03-03T14:24:35.591Z,4.93
2019-03-03T14:27:10.518Z,4.47
2019-03-03T14:29:39.867Z,3.33
2019-03-03T14:32:10.004Z,3.50
2019-03-03T14:34:42.334Z,2.50
2019-03-03T14:37:11.643Z,3.90
2019-03-03T14:40:01.340Z,4.97
2019-03-03T14:42:36.578Z,3.53
2019-03-03T14:45:11.697Z,3.17
2019-03-03T14:47:57.438Z,2.60
2019-03-03T14:50:28.621Z,2.40
2019-03-03T14:53:00.472Z,3.23
2019-03-03T14:55:29.802Z,2.90
2019-03-03T14:58:09.033Z,2.43
2019-03-03T15:00:39.013Z,2.03
2019-03-03T15:03:13.725Z,2.50
2019-03-03T15:05:44.150Z,1.97
2019-03-03T15:08:17.719Z,2.53
2019-03-03T15:10:56.393Z,3.20
2019-03-03T15:13:38.003Z,1.43
2019-03-03T15:16:09.360Z,1.87
2019-03-03T15:18:43.052Z,1.60
2019-03-03T15:21:24.517Z,2.53
2019-03-03T15:23:46.899Z,1.50
2019-03-03T15:26:25.401Z,1.17
2019-03-03T15:28:56.841Z,1.50
2019-03-03T15:31:37.960Z,1.90
2019-03-03T15:34:06.732Z,1.50
2019-03-03T15:36:41.875Z,1.90
2019-03-03T15:39:16.824Z,2.33
2019-03-03T15:41:52.115Z,2.73
2019-03-03T15:45:04.940Z,2.40
2019-03-03T15:47:37.281Z,1.30
2019-03-03T15:50:10.462Z,1.53
2019-03-03T15:52:39.844Z,2.10
2019-03-03T15:55:10.874Z,2.33
2019-03-03T15:57:59.130Z,1.53
2019-03-03T16:00:32.011Z,1.50
2019-03-03T16:03:05.588Z,1.43
2019-03-03T16:05:34.775Z,1.93
2019-03-03T16:08:04.130Z,2.30
2019-03-03T16:10:41.016Z,2.10
2019-03-03T16:13:13.388Z,3.50
2019-03-03T16:15:42.828Z,6.47
2019-03-03T16:18:21.010Z,4.83
2019-03-03T16:20:57.392Z,3.10
2019-03-03T16:23:39.190Z,2.83
2019-03-03T16:26:08.585Z,2.70
2019-03-03T16:28:39.363Z,2.20
2019-03-03T16:31:13.974Z,1.90
2019-03-03T16:33:45.946Z,1.80
2019-03-03T16:36:25.190Z,1.90
2019-03-03T16:39:02.384Z,2.23
2019-03-03T16:41:43.121Z,1.90
2019-03-03T16:44:22.584Z,4.20
2019-03-03T16:46:53.182Z,5.33
2019-03-03T16:49:23.655Z,5.03
2019-03-03T16:52:07.988Z,6.10
2019-03-03T16:54:50.004Z,5.57
2019-03-03T16:57:22.060Z,4.67
2019-03-03T16:59:58.052Z,4.10
2019-03-03T17:02:27.315Z,3.30
2019-03-03T17:05:02.750Z,4.70
2019-03-03T17:07:34.215Z,6.40
2019-03-03T17:10:11.205Z,7.53
2019-03-03T17:12:41.817Z,6.77
2019-03-03T17:15:18.638Z,7.63
2019-03-03T17:17:50.806Z,7.67
2019-03-03T17:20:26.316Z,8.43
2019-03-03T17:23:08.111Z,9.80
2019-03-03T17:25:42.583Z,8.20
2019-03-03T17:28:12.588Z,8.63
2019-03-03T17:34:13.639Z,10.27
2019-03-03T17:36:45.872Z,11.87
2019-03-03T17:39:22.546Z,13.03
2019-03-03T17:41:57.581Z,12.83
2019-03-03T17:44:31.177Z,14.23
2019-03-03T17:47:03.898Z,10.97
2019-03-03T17:49:46.666Z,11.93
2019-03-03T17:52:21.241Z,10.07
2019-03-03T17:54:53.851Z,11.90
2019-03-03T17:57:43.573Z,11.10
2019-03-03T18:00:24.962Z,10.80
2019-03-03T18:02:56.969Z,10.17
2019-03-03T18:05:37.233Z,8.77
2019-03-03T18:08:35.016Z,9.90
2019-03-03T18:11:08.418Z,10.20
2019-03-03T18:13:43.267Z,9.63
2019-03-03T18:16:14.012Z,10.50
2019-03-03T18:18:58.870Z,9.63
2019-03-03T18:21:30.261Z,9.87
2019-03-03T18:24:03.288Z,9.67
2019-03-03T18:26:41.363Z,10.20
2019-03-03T18:29:12.438Z,8.83
2019-03-03T18:31:44.594Z,10.63
2019-03-03T18:34:18.350Z,9.17
2019-03-03T18:36:55.429Z,7.97
2019-03-03T18:39:32.451Z,8.73
2019-03-03T18:42:08.693Z,9.07
2019-03-03T18:44:46.711Z,9.35
2019-03-03T18:47:24.531Z,9.03
2019-03-03T18:50:37.726Z,9.03
2019-03-03T18:53:34.718Z,9.63
2019-03-03T18:56:08.814Z,9.43
2019-03-03T18:58:49.998Z,10.37
2019-03-03T19:01:28.359Z,9.67
2019-03-03T19:03:58.842Z,10.57
2019-03-03T19:06:41.880Z,10.07
2019-03-03T19:09:20.577Z,9.43
2019-03-03T19:11:58.005Z,9.63
2019-03-03T19:14:28.446Z,10.20
2019-03-03T19:17:06.059Z,10.47
2019-03-03T19:19:34.989Z,10.67
2019-03-03T19:22:12.359Z,10.23
2019-03-03T19:24:49.278Z,11.27
2019-03-03T19:27:19.870Z,11.37
2019-03-03T19:29:57.091Z,10.33
2019-03-03T19:32:29.399Z,11.10
2019-03-03T19:35:02.231Z,10.90
2019-03-03T19:37:35.739Z,11.53
2019-03-03T19:40:12.900Z,10.63
2019-03-03T19:42:46.780Z,12.10
2019-03-03T19:45:21.110Z,11.33
2019-03-03T19:47:53.655Z,12.40
2019-03-03T19:50:29.491Z,11.77
2019-03-03T19:53:04.712Z,12.30
2019-03-03T19:55:46.984Z,12.30
2019-03-03T19:58:16.136Z,12.03
2019-03-03T20:00:50.528Z,11.70
2019-03-03T20:03:34.328Z,12.83
2019-03-03T20:06:17.249Z,10.97
2019-03-03T20:08:49.158Z,12.70
2019-03-03T20:11:26.500Z,13.50
2019-03-03T20:14:10.253Z,12.67
2019-03-03T20:16:45.542Z,11.97
2019-03-03T20:19:23.366Z,12.67
2019-03-03T20:22:01.615Z,12.00
2019-03-03T20:24:39.041Z,12.20
2019-03-03T20:27:16.638Z,12.97
2019-03-03T20:29:45.630Z,14.00
2019-03-03T20:32:26.986Z,14.53
2019-03-03T20:35:01.558Z,14.07
2019-03-03T20:37:35.250Z,13.77
2019-03-03T20:40:11.020Z,14.07
2019-03-03T20:42:45.816Z,14.60
2019-03-03T20:45:28.034Z,15.03
2019-03-03T20:47:59.077Z,14.80
2019-03-03T20:50:32.119Z,15.60
2019-03-03T20:53:04.033Z,15.80
2019-03-03T20:55:38.735Z,14.63
2019-03-03T20:58:10.539Z,15.60
2019-03-03T21:00:54.908Z,15.13
2019-03-03T21:03:23.438Z,15.90
2019-03-03T21:06:05.498Z,14.50
2019-03-03T21:08:37.845Z,15.67
2019-03-03T21:11:16.015Z,15.63
2019-03-03T21:13:53.007Z,16.60
2019-03-03T21:16:29.902Z,15.87
2019-03-03T21:19:07.472Z,16.63
2019-03-03T21:21:38.684Z,16.90
2019-03-03T21:24:15.162Z,17.67
2019-03-03T21:26:50.856Z,16.77
2019-03-03T21:29:20.869Z,15.87
2019-03-03T21:31:54.312Z,16.27
2019-03-03T21:34:28.525Z,18.23
2019-03-03T21:37:04.017Z,17.37
2019-03-03T21:39:37.313Z,17.30
2019-03-03T21:42:18.535Z,17.47
2019-03-03T21:45:02.816Z,17.70
2019-03-03T21:47:34.051Z,17.50
2019-03-03T21:50:12.556Z,18.73
2019-03-03T21:52:44.214Z,19.47
2019-03-03T21:55:13.579Z,19.30
2019-03-03T21:57:44.926Z,17.73
2019-03-03T22:00:38.514Z,18.30
2019-03-03T22:03:17.526Z,18.67
2019-03-03T22:05:46.795Z,18.70
2019-03-03T22:08:27.071Z,18.00
2019-03-03T22:11:07.717Z,18.10
2019-03-03T22:13:44.908Z,16.63
2019-03-03T22:16:17.581Z,17.77
2019-03-03T22:18:48.878Z,17.03
2019-03-03T22:21:26.134Z,16.13
2019-03-03T22:24:02.939Z,16.20
2019-03-03T22:26:43.791Z,16.13
2019-03-03T22:29:25.214Z,16.17
2019-03-03T22:32:02.163Z,15.00
2019-03-03T22:34:36.668Z,15.80
2019-03-03T22:37:08.396Z,14.63
2019-03-03T22:39:37.586Z,14.40
2019-03-03T22:42:14.301Z,15.37
2019-03-03T22:44:44.739Z,14.70
2019-03-03T22:47:15.423Z,14.57
2019-03-03T22:49:48.379Z,14.37
2019-03-03T22:52:23.881Z,15.30
2019-03-03T22:55:05.586Z,13.43
2019-03-03T22:57:54.398Z,14.13
2019-03-03T23:00:49.151Z,13.80
2019-03-03T23:04:02.069Z,13.07
2019-03-03T23:06:51.100Z,11.73
2019-03-03T23:10:20.103Z,12.30
2019-03-03T23:13:46.598Z,12.27
2019-03-03T23:16:52.710Z,11.83
2019-03-03T23:20:15.815Z,12.60
2019-03-03T23:23:43.261Z,12.43
2019-03-03T23:26:16.496Z,11.30
2019-03-03T23:28:49.170Z,12.17
2019-03-03T23:31:26.574Z,12.17
2019-03-03T23:34:03.260Z,11.83
2019-03-03T23:36:43.434Z,12.80
2019-03-03T23:39:15.833Z,11.40
2019-03-03T23:41:49.024Z,13.47
2019-03-03T23:44:33.201Z,12.83
2019-03-03T23:47:10.450Z,11.77
2019-03-03T23:49:46.086Z,12.17
2019-03-03T23:52:19.335Z,12.70
2019-03-03T23:55:04.507Z,11.47
2019-03-03T23:57:38.157Z,13.27
